43PN weather

E L Gruber Heliport
Pottstown, Pennsylvania, United States

Public forecast

Using degrees Fahrenheit for public forecast. Weather courtesy of forecast.io.

METAR (pilot weather report)

Closest report is Heritage Field, 4.0 nm (7.5 km) E. Retrieved 2019/07/19 14:54 UTC (36 minutes ago):

KPTW 191454Z AUTO VRB04KT 9SM CLR 28/23 A2996 RMK AO2 SLP139 T02830233 51001

TAF (pilot weather forecast)

Closest forecast is Reading Regional Carl A Spaatz Field, 17.1 nm (31.7 km) WNW. Retrieved 2019/07/19 12:30 UTC (3 hours ago):

TAF KRDG 191129Z 1912/2012 VRB03KT 2SM BR BKN007 OVC012 TEMPO 1912/1913 6SM BR SCT007 BKN012 FM191300 25004KT P6SM BKN025 FM191400 24008KT P6SM SCT040 FM200100 VRB03KT P6SM SCT040